Time;durP1;ratioP1;P1;durP2;ratioP2;P2;SDS_P1;SDS_P2;PMS_P1;PMS_P2;Temp;Humidity;BMP_temperature;BMP_pressure;BME280_temperature;BME280_humidity;BME280_pressure;Samples;Min_cycle;Max_cycle;Signal;HPM_P1;HPM_P2
2023/07/03 00:00:21;;;;;;;;;;;;;;;;;;5090715;28;20022;-67
2023/07/03 00:02:49;;;;;;;;;;;;;;;;;;5082708;28;20033;-67
2023/07/03 00:05:17;;;;;;;;;;;;;;;;;;5088774;28;19924;-67
2023/07/03 00:07:46;;;;;;;;;;;;;;;;;;5083010;28;19924;-67
2023/07/03 00:10:13;;;;;;;;;;;;;;;;;;5083895;28;19924;-67
2023/07/03 00:12:40;;;;;;;;;;;;;;;;;;5082550;28;20023;-67
2023/07/03 00:15:09;;;;;;;;;;;;;;;;;;5085962;28;20211;-67
2023/07/03 00:17:37;;;;;;;;;;;;;;;;;;5088587;28;19982;-66
2023/07/03 00:20:04;;;;;;;;;;;;;;;;;;5082763;28;19932;-66
2023/07/03 00:22:31;;;;;;;;;;;;;;;;;;5081872;28;19924;-67
2023/07/03 00:24:58;;;;;;;;;;;;;;;;;;5084406;28;20330;-67
2023/07/03 00:27:25;;;;;;;;;;;;;;;;;;5084557;28;20021;-67
2023/07/03 00:29:52;;;;;;;;;;;;;;;;;;5090841;28;19924;-66
2023/07/03 00:32:19;;;;;;;;;;;;;;;;;;5087670;28;20031;-67
2023/07/03 00:34:46;;;;;;;;;;;;;;;;;;5085479;28;19998;-66
2023/07/03 00:37:14;;;;;;;;;;;;;;;;;;5085168;28;20621;-66
2023/07/03 00:39:41;;;;;;;;;;;;;;;;;;5082979;28;20022;-67
2023/07/03 00:42:08;;;;;;;;;;;;;;;;;;5084447;28;19930;-67
2023/07/03 00:44:35;;;;;;;;;;;;;;;;;;5086617;28;19924;-66
2023/07/03 00:47:03;;;;;;;;;;;;;;;;;;5085279;28;20006;-66
2023/07/03 00:49:30;;;;;;;;;;;;;;;;;;5091423;28;19928;-67
2023/07/03 00:51:57;;;;;;;;;;;;;;;;;;5085899;28;20015;-66
2023/07/03 00:54:24;;;;;;;;;;;;;;;;;;5077417;28;19954;-67
2023/07/03 00:56:51;;;;;;;;;;;;;;;;;;5086885;28;20078;-68
2023/07/03 00:59:18;;;;;;;;;;;;;;;;;;5084683;28;20469;-69
2023/07/03 01:01:45;;;;;;;;;;;;;;;;;;5089679;28;20379;-68
2023/07/03 01:04:12;;;;;;;;;;;;;;;;;;5082734;28;20351;-69
2023/07/03 01:06:39;;;;;;;;;;;;;;;;;;5084599;28;19966;-68
2023/07/03 01:09:06;;;;;;;;;;;;;;;;;;5087199;28;19975;-68
2023/07/03 01:11:33;;;;;;;;;;;;;;;;;;5082943;28;20428;-68
2023/07/03 01:14:00;;;;;;;;;;;;;;;;;;5082230;28;20026;-69
2023/07/03 01:16:30;;;;;;;;;;;;;;;;;;5082882;28;20019;-68
2023/07/03 01:18:57;;;;;;;;;;;;;;;;;;5087617;28;20348;-69
2023/07/03 01:21:24;;;;;;;;;;;;;;;;;;5087198;28;20306;-68
2023/07/03 01:23:51;;;;;;;;;;;;;;;;;;5085789;28;19924;-68
2023/07/03 01:26:18;;;;;;;;;;;;;;;;;;5083843;28;19951;-68
2023/07/03 01:28:45;;;;;;;;;;;;;;;;;;5081231;28;20015;-68
2023/07/03 01:31:12;;;;;;;;;;;;;;;;;;5089502;28;20007;-69
2023/07/03 01:33:40;;;;;;;;;;;;;;;;;;5085027;28;20506;-68
2023/07/03 01:36:07;;;;;;;;;;;;;;;;;;5081059;28;19924;-69
2023/07/03 01:38:34;;;;;;;;;;;;;;;;;;5083026;28;20413;-68
2023/07/03 01:41:01;;;;;;;;;;;;;;;;;;5084934;28;20369;-69
2023/07/03 01:43:28;;;;;;;;;;;;;;;;;;5082533;28;19947;-68
2023/07/03 01:45:55;;;;;;;;;;;;;;;;;;5081524;28;19986;-67
2023/07/03 01:48:22;;;;;;;;;;;;;;;;;;5087811;28;20446;-68
2023/07/03 01:50:49;;;;;;;;;;;;;;;;;;5093304;28;20523;-68
2023/07/03 01:53:16;;;;;;;;;;;;;;;;;;5084026;28;20014;-69
2023/07/03 01:55:43;;;;;;;;;;;;;;;;;;5085330;28;19932;-69
2023/07/03 01:58:10;;;;;;;;;;;;;;;;;;5084548;28;19938;-69
2023/07/03 02:00:37;;;;;;;;;;;;;;;;;;5089645;28;19932;-68
2023/07/03 02:03:05;;;;;;;;;;;;;;;;;;5085690;28;19936;-68
2023/07/03 02:05:32;;;;;;;;;;;;;;;;;;5091879;28;19993;-68
2023/07/03 02:07:59;;;;;;;;;;;;;;;;;;5089644;28;19975;-68
2023/07/03 02:10:26;;;;;;;;;;;;;;;;;;5085162;28;19931;-68
2023/07/03 02:12:53;;;;;;;;;;;;;;;;;;5084361;28;20125;-69
2023/07/03 02:15:20;;;;;;;;;;;;;;;;;;5083895;28;20020;-68
2023/07/03 02:17:47;;;;;;;;;;;;;;;;;;5083977;28;20423;-68
2023/07/03 02:20:14;;;;;;;;;;;;;;;;;;5088075;28;19924;-68
2023/07/03 02:22:41;;;;;;;;;;;;;;;;;;5091871;28;19978;-68
2023/07/03 02:25:08;;;;;;;;;;;;;;;;;;5082851;28;19931;-68
2023/07/03 02:27:35;;;;;;;;;;;;;;;;;;5083824;28;20350;-69
2023/07/03 02:30:02;;;;;;;;;;;;;;;;;;5086414;28;20443;-69
2023/07/03 02:32:29;;;;;;;;;;;;;;;;;;5092751;28;20343;-68
2023/07/03 02:34:56;;;;;;;;;;;;;;;;;;5089634;28;20014;-68
2023/07/03 02:37:23;;;;;;;;;;;;;;;;;;5084939;28;20030;-68
2023/07/03 02:39:50;;;;;;;;;;;;;;;;;;5083796;28;19932;-68
2023/07/03 02:42:17;;;;;;;;;;;;;;;;;;5084844;28;19932;-68
2023/07/03 02:44:44;;;;;;;;;;;;;;;;;;5089262;28;19924;-68
2023/07/03 02:47:11;;;;;;;;;;;;;;;;;;5087026;28;19924;-68
2023/07/03 02:49:38;;;;;;;;;;;;;;;;;;5088462;28;19964;-68
2023/07/03 02:52:05;;;;;;;;;;;;;;;;;;5092332;28;20039;-68
2023/07/03 02:54:32;;;;;;;;;;;;;;;;;;5091480;28;19924;-66
2023/07/03 02:56:59;;;;;;;;;;;;;;;;;;5086703;28;19924;-68
2023/07/03 02:59:26;;;;;;;;;;;;;;;;;;5086985;28;19924;-68
2023/07/03 03:01:53;;;;;;;;;;;;;;;;;;5089285;28;19963;-68
2023/07/03 03:04:20;;;;;;;;;;;;;;;;;;5090715;28;20443;-66
2023/07/03 03:06:47;;;;;;;;;;;;;;;;;;5088117;28;20366;-66
2023/07/03 03:09:14;;;;;;;;;;;;;;;;;;5087404;28;20298;-66
2023/07/03 03:11:41;;;;;;;;;;;;;;;;;;5091489;28;20289;-66
2023/07/03 03:14:08;;;;;;;;;;;;;;;;;;5088921;28;23105;-67
2023/07/03 03:16:35;;;;;;;;;;;;;;;;;;5086496;28;19935;-67
2023/07/03 03:19:03;;;;;;;;;;;;;;;;;;5091505;28;20019;-68
2023/07/03 03:21:30;;;;;;;;;;;;;;;;;;5093173;28;19931;-66
2023/07/03 03:23:57;;;;;;;;;;;;;;;;;;5091195;28;19931;-66
2023/07/03 03:26:24;;;;;;;;;;;;;;;;;;5083113;28;19974;-67
2023/07/03 03:28:51;;;;;;;;;;;;;;;;;;5084614;28;19924;-67
2023/07/03 03:31:18;;;;;;;;;;;;;;;;;;5084534;28;20069;-67
2023/07/03 03:33:46;;;;;;;;;;;;;;;;;;5082149;28;20399;-66
2023/07/03 03:36:13;;;;;;;;;;;;;;;;;;5082177;28;22142;-67
2023/07/03 03:38:40;;;;;;;;;;;;;;;;;;5084773;28;20405;-67
2023/07/03 03:41:07;;;;;;;;;;;;;;;;;;5087938;28;20405;-67
2023/07/03 03:43:34;;;;;;;;;;;;;;;;;;5083479;28;20373;-67
2023/07/03 03:46:01;;;;;;;;;;;;;;;;;;5083699;28;19931;-67
2023/07/03 03:48:28;;;;;;;;;;;;;;;;;;5083625;28;19931;-67
2023/07/03 03:50:55;;;;;;;;;;;;;;;;;;5084802;28;20003;-67
2023/07/03 03:53:22;;;;;;;;;;;;;;;;;;5082987;28;20305;-67
2023/07/03 03:55:49;;;;;;;;;;;;;;;;;;5089641;28;19967;-67
2023/07/03 03:58:16;;;;;;;;;;;;;;;;;;5084540;28;19974;-67
2023/07/03 04:00:43;;;;;;;;;;;;;;;;;;5082992;28;19924;-67
2023/07/03 04:03:10;;;;;;;;;;;;;;;;;;5081327;28;19924;-67
2023/07/03 04:05:37;;;;;;;;;;;;;;;;;;5080431;28;20018;-68
2023/07/03 04:08:04;;;;;;;;;;;;;;;;;;5086103;28;19982;-67
2023/07/03 04:10:31;;;;;;;;;;;;;;;;;;5087361;28;20015;-67
2023/07/03 04:12:58;;;;;;;;;;;;;;;;;;5081689;28;19966;-67
2023/07/03 04:15:25;;;;;;;;;;;;;;;;;;5089196;28;19924;-67
2023/07/03 04:17:52;;;;;;;;;;;;;;;;;;5088301;28;20019;-67
2023/07/03 04:20:19;;;;;;;;;;;;;;;;;;5085741;28;20393;-66
2023/07/03 04:22:46;;;;;;;;;;;;;;;;;;5081117;28;20561;-67
2023/07/03 04:25:13;;;;;;;;;;;;;;;;;;5090276;28;19974;-67
2023/07/03 04:27:40;;;;;;;;;;;;;;;;;;5083096;28;19931;-67
2023/07/03 04:30:07;;;;;;;;;;;;;;;;;;5089068;28;19924;-67
2023/07/03 04:32:35;;;;;;;;;;;;;;;;;;5089082;28;20019;-67
2023/07/03 04:35:02;;;;;;;;;;;;;;;;;;5086812;28;19928;-68
2023/07/03 04:37:29;;;;;;;;;;;;;;;;;;5084038;28;19930;-67
2023/07/03 04:39:56;;;;;;;;;;;;;;;;;;5087452;28;20390;-68
2023/07/03 04:42:23;;;;;;;;;;;;;;;;;;5082648;28;19930;-68
2023/07/03 04:44:50;;;;;;;;;;;;;;;;;;5086029;28;19924;-68
2023/07/03 04:47:17;;;;;;;;;;;;;;;;;;5086229;28;19924;-69
2023/07/03 04:49:45;;;;;;;;;;;;;;;;;;5082451;28;19940;-69
2023/07/03 04:52:16;;;;;;;;;;;;;;;;;;5089427;28;19934;-68
2023/07/03 04:54:43;;;;;;;;;;;;;;;;;;5084318;28;20426;-68
2023/07/03 04:57:10;;;;;;;;;;;;;;;;;;5082040;28;20521;-69
2023/07/03 04:59:37;;;;;;;;;;;;;;;;;;5082590;28;20026;-69
2023/07/03 05:02:04;;;;;;;;;;;;;;;;;;5083004;28;20310;-69
2023/07/03 05:04:31;;;;;;;;;;;;;;;;;;5086857;28;19931;-69
2023/07/03 05:06:58;;;;;;;;;;;;;;;;;;5080600;28;20544;-69
2023/07/03 05:09:26;;;;;;;;;;;;;;;;;;5083755;28;20338;-69
2023/07/03 05:11:53;;;;;;;;;;;;;;;;;;5077855;28;19924;-69
2023/07/03 05:14:20;;;;;;;;;;;;;;;;;;5088680;28;19924;-69
2023/07/03 05:16:47;;;;;;;;;;;;;;;;;;5084021;28;19936;-68
2023/07/03 05:19:14;;;;;;;;;;;;;;;;;;5089799;28;20014;-69
2023/07/03 05:21:41;;;;;;;;;;;;;;;;;;5083038;28;19924;-69
2023/07/03 05:24:08;;;;;;;;;;;;;;;;;;5085800;28;19971;-69
2023/07/03 05:26:35;;;;;;;;;;;;;;;;;;5087832;28;19974;-68
2023/07/03 05:29:02;;;;;;;;;;;;;;;;;;5088542;28;19970;-69
2023/07/03 05:31:29;;;;;;;;;;;;;;;;;;5083764;28;19955;-69
2023/07/03 05:33:56;;;;;;;;;;;;;;;;;;5087228;28;19932;-68
2023/07/03 05:36:23;;;;;;;;;;;;;;;;;;5086949;28;19970;-68
2023/07/03 05:38:50;;;;;;;;;;;;;;;;;;5090083;28;19924;-69
2023/07/03 05:41:16;;;;;;;;;;;;;;;;;;5087560;28;20466;-68
2023/07/03 05:43:43;;;;;;;;;;;;;;;;;;5086174;28;19946;-69
2023/07/03 05:46:10;;;;;;;;;;;;;;;;;;5085284;28;19970;-69
2023/07/03 05:48:37;;;;;;;;;;;;;;;;;;5086937;28;19963;-69
2023/07/03 05:51:04;;;;;;;;;;;;;;;;;;5090338;28;20462;-68
2023/07/03 05:53:31;;;;;;;;;;;;;;;;;;5093013;28;19963;-69
2023/07/03 05:55:58;;;;;;;;;;;;;;;;;;5085423;28;20006;-68
2023/07/03 05:58:25;;;;;;;;;;;;;;;;;;5086511;28;19969;-68
2023/07/03 06:00:52;;;;;;;;;;;;;;;;;;5089915;28;19931;-69
2023/07/03 06:03:19;;;;;;;;;;;;;;;;;;5093802;28;19924;-69
2023/07/03 06:05:46;;;;;;;;;;;;;;;;;;5092081;28;20401;-69
2023/07/03 06:08:13;;;;;;;;;;;;;;;;;;5093492;28;19979;-71
2023/07/03 06:10:40;;;;;;;;;;;;;;;;;;5092453;28;20519;-72
2023/07/03 06:13:07;;;;;;;;;;;;;;;;;;5090764;28;20006;-69
2023/07/03 06:15:35;;;;;;;;;;;;;;;;;;5087751;28;19946;-72
2023/07/03 06:18:03;;;;;;;;;;;;;;;;;;5089445;28;19932;-71
2023/07/03 06:20:30;;;;;;;;;;;;;;;;;;5088860;28;19923;-71
2023/07/03 06:22:57;;;;;;;;;;;;;;;;;;5093488;28;19963;-71
2023/07/03 06:25:24;;;;;;;;;;;;;;;;;;5075770;28;19931;-71
2023/07/03 06:27:51;;;;;;;;;;;;;;;;;;5087503;28;19924;-72
2023/07/03 06:30:18;;;;;;;;;;;;;;;;;;5088972;28;19932;-71
2023/07/03 06:32:45;;;;;;;;;;;;;;;;;;5091916;28;19928;-72
2023/07/03 06:35:12;;;;;;;;;;;;;;;;;;5082418;28;19942;-73
2023/07/03 06:37:39;;;;;;;;;;;;;;;;;;5083661;28;20023;-73
2023/07/03 06:40:09;;;;;;;;;;;;;;;;;;5084688;28;19927;-73
2023/07/03 06:42:36;;;;;;;;;;;;;;;;;;5088814;28;20015;-73
2023/07/03 06:45:03;;;;;;;;;;;;;;;;;;5085709;28;19928;-73
2023/07/03 06:47:30;;;;;;;;;;;;;;;;;;5088484;28;19928;-73
2023/07/03 06:49:57;;;;;;;;;;;;;;;;;;5091644;28;20015;-73
2023/07/03 06:52:24;;;;;;;;;;;;;;;;;;5085696;28;20031;-73
2023/07/03 06:54:51;;;;;;;;;;;;;;;;;;5085018;28;19924;-74
2023/07/03 06:57:18;;;;;;;;;;;;;;;;;;5091585;28;20385;-73
2023/07/03 06:59:45;;;;;;;;;;;;;;;;;;5092463;28;19924;-73
2023/07/03 07:02:12;;;;;;;;;;;;;;;;;;5095782;28;19966;-73
2023/07/03 07:04:39;;;;;;;;;;;;;;;;;;5100462;28;20470;-74
2023/07/03 07:07:06;;;;;;;;;;;;;;;;;;5093669;28;20019;-73
2023/07/03 07:09:33;;;;;;;;;;;;;;;;;;5093423;28;20042;-73
2023/07/03 07:12:00;;;;;;;;;;;;;;;;;;5093239;28;19974;-74
2023/07/03 07:14:27;;;;;;;;;;;;;;;;;;5088183;28;19970;-73
2023/07/03 07:16:54;;;;;;;;;;;;;;;;;;5091862;28;20024;-73
2023/07/03 07:19:21;;;;;;;;;;;;;;;;;;5092349;28;20023;-74
2023/07/03 07:21:49;;;;;;;;;;;;;;;;;;5092498;28;19928;-74
2023/07/03 07:24:16;;;;;;;;;;;;;;;;;;5090966;28;19970;-73
2023/07/03 07:26:43;;;;;;;;;;;;;;;;;;5092243;28;20453;-73
2023/07/03 07:29:10;;;;;;;;;;;;;;;;;;5084820;28;19924;-73
2023/07/03 07:31:37;;;;;;;;;;;;;;;;;;5091754;28;19928;-73
2023/07/03 07:34:05;;;;;;;;;;;;;;;;;;5089253;28;20019;-73
2023/07/03 07:36:32;;;;;;;;;;;;;;;;;;5092252;28;20034;-74
2023/07/03 07:38:59;;;;;;;;;;;;;;;;;;5089431;28;20018;-74
2023/07/03 07:41:26;;;;;;;;;;;;;;;;;;5091335;28;19934;-74
2023/07/03 07:43:53;;;;;;;;;;;;;;;;;;5085268;28;19939;-73
2023/07/03 07:46:20;;;;;;;;;;;;;;;;;;5080868;28;20035;-73
2023/07/03 07:48:47;;;;;;;;;;;;;;;;;;5083134;28;19957;-73
2023/07/03 07:51:13;;;;;;;;;;;;;;;;;;5085976;28;19955;-73
2023/07/03 07:53:40;;;;;;;;;;;;;;;;;;5082493;28;19938;-73
2023/07/03 07:56:07;;;;;;;;;;;;;;;;;;5081402;28;20390;-73
2023/07/03 07:58:34;;;;;;;;;;;;;;;;;;5083317;28;20290;-73
2023/07/03 08:01:01;;;;;;;;;;;;;;;;;;5089190;28;20054;-72
2023/07/03 08:03:28;;;;;;;;;;;;;;;;;;5088084;28;19967;-72
2023/07/03 08:05:55;;;;;;;;;;;;;;;;;;5083069;28;20448;-72
2023/07/03 08:08:22;;;;;;;;;;;;;;;;;;5082558;28;20015;-72
2023/07/03 08:10:49;;;;;;;;;;;;;;;;;;5080972;28;20012;-73
2023/07/03 08:13:16;;;;;;;;;;;;;;;;;;5078326;28;19928;-73
2023/07/03 08:15:43;;;;;;;;;;;;;;;;;;5078471;28;20011;-73
2023/07/03 08:18:10;;;;;;;;;;;;;;;;;;5088169;28;19970;-73
2023/07/03 08:20:37;;;;;;;;;;;;;;;;;;5076804;28;20309;-73
2023/07/03 08:23:04;;;;;;;;;;;;;;;;;;5076781;28;19924;-72
2023/07/03 08:25:31;;;;;;;;;;;;;;;;;;5081263;28;19924;-72
2023/07/03 08:27:58;;;;;;;;;;;;;;;;;;5084223;28;20019;-73
2023/07/03 08:30:25;;;;;;;;;;;;;;;;;;5086382;28;20378;-74
2023/07/03 08:32:52;;;;;;;;;;;;;;;;;;5088248;28;20343;-73
2023/07/03 08:35:19;;;;;;;;;;;;;;;;;;5088153;28;19999;-73
2023/07/03 08:37:46;;;;;;;;;;;;;;;;;;5075193;28;19968;-73
2023/07/03 08:40:14;;;;;;;;;;;;;;;;;;5089066;28;20007;-73
2023/07/03 08:42:41;;;;;;;;;;;;;;;;;;5071103;28;20378;-74
2023/07/03 08:45:08;;;;;;;;;;;;;;;;;;5086690;28;20387;-77
2023/07/03 08:47:35;;;;;;;;;;;;;;;;;;5077260;28;19936;-71
2023/07/03 08:50:03;;;;;;;;;;;;;;;;;;5081956;28;20125;-70
2023/07/03 08:52:30;;;;;;;;;;;;;;;;;;5079607;28;19928;-71
2023/07/03 08:54:57;;;;;;;;;;;;;;;;;;5094659;28;19932;-70
2023/07/03 08:57:24;;;;;;;;;;;;;;;;;;5088537;28;20376;-69
2023/07/03 08:59:51;;;;;;;;;;;;;;;;;;5081120;28;20011;-70
2023/07/03 09:02:18;;;;;;;;;;;;;;;;;;5085586;28;20031;-70
2023/07/03 09:04:45;;;;;;;;;;;;;;;;;;5080667;28;20288;-69
2023/07/03 09:07:12;;;;;;;;;;;;;;;;;;5083101;28;20405;-72
2023/07/03 09:09:39;;;;;;;;;;;;;;;;;;5088423;28;20338;-71
2023/07/03 09:12:06;;;;;;;;;;;;;;;;;;5083277;28;20007;-77
2023/07/03 09:14:33;;;;;;;;;;;;;;;;;;5094326;28;20015;-76
2023/07/03 09:17:01;;;;;;;;;;;;;;;;;;5088122;28;19928;-75
2023/07/03 09:19:28;;;;;;;;;;;;;;;;;;5087351;28;19998;-70
2023/07/03 09:21:55;;;;;;;;;;;;;;;;;;5087916;28;19924;-73
2023/07/03 09:24:22;;;;;;;;;;;;;;;;;;5091207;28;20370;-74
2023/07/03 09:26:49;;;;;;;;;;;;;;;;;;5090635;28;19924;-73
2023/07/03 09:29:16;;;;;;;;;;;;;;;;;;5089911;28;20466;-74
2023/07/03 09:31:42;;;;;;;;;;;;;;;;;;5089445;28;20038;-72
2023/07/03 09:34:09;;;;;;;;;;;;;;;;;;5083825;28;19935;-72
2023/07/03 09:36:39;;;;;;;;;;;;;;;;;;5080183;28;19963;-72
2023/07/03 09:39:07;;;;;;;;;;;;;;;;;;5087414;28;20010;-72
2023/07/03 09:41:34;;;;;;;;;;;;;;;;;;5082389;28;19932;-73
2023/07/03 09:44:01;;;;;;;;;;;;;;;;;;5086222;28;19924;-72
2023/07/03 09:46:28;;;;;;;;;;;;;;;;;;5081989;28;19986;-74
2023/07/03 09:48:55;;;;;;;;;;;;;;;;;;5094516;28;19924;-73
2023/07/03 09:51:22;;;;;;;;;;;;;;;;;;5089186;28;20277;-77
2023/07/03 09:53:49;;;;;;;;;;;;;;;;;;5091672;28;19930;-77
2023/07/03 09:56:16;;;;;;;;;;;;;;;;;;5087114;28;20027;-75
2023/07/03 09:58:43;;;;;;;;;;;;;;;;;;5088501;28;19931;-74
2023/07/03 10:01:10;;;;;;;;;;;;;;;;;;5087200;28;20018;-75
2023/07/03 10:03:37;;;;;;;;;;;;;;;;;;5076151;22;20349;-74
2023/07/03 10:06:04;;;;;;;;;;;;;;;;;;5067251;28;19935;-75
2023/07/03 10:08:31;;;;;;;;;;;;;;;;;;5066680;28;20403;-75
2023/07/03 10:10:58;;;;;;;;;;;;;;;;;;5072227;28;20477;-74
2023/07/03 10:13:26;;;;;;;;;;;;;;;;;;5070836;28;20383;-75
2023/07/03 10:15:55;;;;;;;;;;;;;;;;;;5056201;28;20025;-74
2023/07/03 10:18:22;;;;;;;;;;;;;;;;;;5071559;28;19931;-74
2023/07/03 10:20:49;;;;;;;;;;;;;;;;;;5063230;28;19971;-74
2023/07/03 10:23:16;;;;;;;;;;;;;;;;;;5063907;28;19924;-74
2023/07/03 10:25:43;;;;;;;;;;;;;;;;;;5064084;28;20031;-75
2023/07/03 10:28:10;;;;;;;;;;;;;;;;;;5072006;28;19960;-75
2023/07/03 10:30:37;;;;;;;;;;;;;;;;;;5071477;28;19939;-74
2023/07/03 10:33:04;;;;;;;;;;;;;;;;;;5067028;28;19924;-74
2023/07/03 10:35:32;;;;;;;;;;;;;;;;;;5067401;28;20344;-75
2023/07/03 10:37:59;;;;;;;;;;;;;;;;;;5065171;28;19924;-73
2023/07/03 10:40:28;;;;;;;;;;;;;;;;;;5063641;28;20019;-73
2023/07/03 10:42:55;;;;;;;;;;;;;;;;;;5063593;28;19968;-72
2023/07/03 10:45:22;;;;;;;;;;;;;;;;;;5071288;28;20015;-73
2023/07/03 10:47:49;;;;;;;;;;;;;;;;;;5072327;28;20287;-73
2023/07/03 10:50:17;;;;;;;;;;;;;;;;;;5071712;28;19932;-73
2023/07/03 10:52:44;;;;;;;;;;;;;;;;;;5071520;28;20014;-72
2023/07/03 10:55:11;;;;;;;;;;;;;;;;;;5070460;28;19963;-71
2023/07/03 10:57:40;;;;;;;;;;;;;;;;;;5069228;28;19968;-76
2023/07/03 11:00:07;;;;;;;;;;;;;;;;;;5064310;28;19952;-73
2023/07/03 11:02:35;;;;;;;;;;;;;;;;;;5070682;28;19952;-73
2023/07/03 11:05:02;;;;;;;;;;;;;;;;;;5072926;28;19939;-73
2023/07/03 11:07:29;;;;;;;;;;;;;;;;;;5070112;28;19932;-74
2023/07/03 11:09:56;;;;;;;;;;;;;;;;;;5065571;28;20306;-74
2023/07/03 11:12:23;;;;;;;;;;;;;;;;;;5070565;28;20043;-73
2023/07/03 11:14:50;;;;;;;;;;;;;;;;;;5064642;28;19963;-74
2023/07/03 11:17:20;;;;;;;;;;;;;;;;;;5063213;28;19925;-75
2023/07/03 11:19:48;;;;;;;;;;;;;;;;;;5066347;28;19963;-74
2023/07/03 11:22:14;;;;;;;;;;;;;;;;;;5064235;28;19928;-74
2023/07/03 11:24:41;;;;;;;;;;;;;;;;;;5072130;28;20395;-75
2023/07/03 11:27:08;;;;;;;;;;;;;;;;;;5064277;28;19978;-74
2023/07/03 11:29:35;;;;;;;;;;;;;;;;;;5066478;28;19925;-75
2023/07/03 11:32:02;;;;;;;;;;;;;;;;;;5066650;28;19952;-74
2023/07/03 11:34:29;;;;;;;;;;;;;;;;;;5071944;28;20351;-75
2023/07/03 11:36:57;;;;;;;;;;;;;;;;;;5072594;28;19960;-75
2023/07/03 11:39:26;;;;;;;;;;;;;;;;;;5066976;28;19924;-73
2023/07/03 11:41:53;;;;;;;;;;;;;;;;;;5073154;28;19924;-76
2023/07/03 11:44:20;;;;;;;;;;;;;;;;;;5071666;28;20028;-73
2023/07/03 11:46:47;;;;;;;;;;;;;;;;;;5066734;28;19929;-76
2023/07/03 11:49:14;;;;;;;;;;;;;;;;;;5068542;28;19924;-76
2023/07/03 11:51:41;;;;;;;;;;;;;;;;;;5064730;28;20375;-78
2023/07/03 11:54:08;;;;;;;;;;;;;;;;;;5060480;28;19943;-76
2023/07/03 11:56:35;;;;;;;;;;;;;;;;;;5068143;28;19977;-75
2023/07/03 11:59:02;;;;;;;;;;;;;;;;;;5076289;28;19924;-68
2023/07/03 12:01:30;;;;;;;;;;;;;;;;;;5066440;28;19932;-68
2023/07/03 12:03:57;;;;;;;;;;;;;;;;;;5065906;28;19924;-69
2023/07/03 12:06:24;;;;;;;;;;;;;;;;;;5064404;28;19931;-69
2023/07/03 12:08:51;;;;;;;;;;;;;;;;;;5072096;28;19928;-71
2023/07/03 12:11:20;;;;;;;;;;;;;;;;;;5053364;28;19972;-68
2023/07/03 12:13:47;;;;;;;;;;;;;;;;;;5069540;28;19924;-69
2023/07/03 12:16:14;;;;;;;;;;;;;;;;;;5066626;28;19931;-70
2023/07/03 12:18:41;;;;;;;;;;;;;;;;;;5074350;28;19975;-71
2023/07/03 12:21:08;;;;;;;;;;;;;;;;;;5070196;28;19925;-71
2023/07/03 12:23:35;;;;;;;;;;;;;;;;;;5068913;28;19925;-72
2023/07/03 12:26:02;;;;;;;;;;;;;;;;;;5070743;28;19931;-71
2023/07/03 12:28:29;;;;;;;;;;;;;;;;;;5063085;28;19935;-72
2023/07/03 12:30:56;;;;;;;;;;;;;;;;;;5076089;28;19928;-72
2023/07/03 12:33:23;;;;;;;;;;;;;;;;;;5079509;28;19968;-70
2023/07/03 12:35:50;;;;;;;;;;;;;;;;;;5082208;28;20486;-71
2023/07/03 12:38:17;;;;;;;;;;;;;;;;;;5072636;28;20011;-71
2023/07/03 12:40:44;;;;;;;;;;;;;;;;;;5072758;28;20015;-72
2023/07/03 12:43:11;;;;;;;;;;;;;;;;;;5075522;28;20375;-71
2023/07/03 12:45:38;;;;;;;;;;;;;;;;;;5075885;28;20406;-70
2023/07/03 12:48:05;;;;;;;;;;;;;;;;;;5066713;28;20469;-73
2023/07/03 12:50:32;;;;;;;;;;;;;;;;;;5067851;28;19968;-72
2023/07/03 12:52:59;;;;;;;;;;;;;;;;;;5071161;28;20046;-72
2023/07/03 12:55:26;;;;;;;;;;;;;;;;;;5072565;28;20007;-71
2023/07/03 12:57:54;;;;;;;;;;;;;;;;;;5070093;28;20023;-71
2023/07/03 13:00:20;;;;;;;;;;;;;;;;;;5073137;28;19931;-71
2023/07/03 13:02:48;;;;;;;;;;;;;;;;;;5072472;28;20011;-70
2023/07/03 13:05:15;;;;;;;;;;;;;;;;;;5066996;28;19924;-71
2023/07/03 13:07:41;;;;;;;;;;;;;;;;;;5070058;28;19964;-69
2023/07/03 13:10:08;;;;;;;;;;;;;;;;;;5071265;28;20367;-70
2023/07/03 13:12:35;;;;;;;;;;;;;;;;;;5076538;28;20007;-70
2023/07/03 13:15:06;;;;;;;;;;;;;;;;;;5069750;28;19932;-68
2023/07/03 13:17:33;;;;;;;;;;;;;;;;;;5067378;28;19978;-68
2023/07/03 13:20:00;;;;;;;;;;;;;;;;;;5069278;28;20350;-68
2023/07/03 13:22:32;;;;;;;;;;;;;;;;;;5068499;28;20015;-69
2023/07/03 13:24:59;;;;;;;;;;;;;;;;;;5070518;28;19924;-68
2023/07/03 13:27:26;;;;;;;;;;;;;;;;;;5068869;28;20467;-68
2023/07/03 13:29:57;;;;;;;;;;;;;;;;;;5062905;28;19924;-68
2023/07/03 13:32:25;;;;;;;;;;;;;;;;;;5064416;28;19970;-69
2023/07/03 13:34:52;;;;;;;;;;;;;;;;;;5070427;28;19928;-68
2023/07/03 13:37:19;;;;;;;;;;;;;;;;;;5070790;28;19931;-69
2023/07/03 13:39:46;;;;;;;;;;;;;;;;;;5070168;28;19975;-68
2023/07/03 13:42:14;;;;;;;;;;;;;;;;;;5068017;28;20007;-69
2023/07/03 13:44:41;;;;;;;;;;;;;;;;;;5068157;28;19931;-70
2023/07/03 13:47:08;;;;;;;;;;;;;;;;;;5070001;28;19959;-71
2023/07/03 13:49:35;;;;;;;;;;;;;;;;;;5074202;28;19959;-72
2023/07/03 13:52:02;;;;;;;;;;;;;;;;;;5069847;28;20350;-72
2023/07/03 13:54:29;;;;;;;;;;;;;;;;;;5066120;28;19929;-72
2023/07/03 13:56:56;;;;;;;;;;;;;;;;;;5070510;28;19979;-72
2023/07/03 13:59:23;;;;;;;;;;;;;;;;;;5066383;28;19937;-72
2023/07/03 14:01:50;;;;;;;;;;;;;;;;;;5071745;28;19924;-72
2023/07/03 14:04:17;;;;;;;;;;;;;;;;;;5072467;28;19947;-71
2023/07/03 14:06:44;;;;;;;;;;;;;;;;;;5055767;28;19967;-71
2023/07/03 14:09:11;;;;;;;;;;;;;;;;;;5072320;28;19948;-71
2023/07/03 14:11:38;;;;;;;;;;;;;;;;;;5072416;28;19924;-72
2023/07/03 14:14:05;;;;;;;;;;;;;;;;;;5072609;28;19975;-71
2023/07/03 14:16:32;;;;;;;;;;;;;;;;;;5069732;28;19924;-72
2023/07/03 14:19:01;;;;;;;;;;;;;;;;;;5065297;28;20038;-72
2023/07/03 14:21:28;;;;;;;;;;;;;;;;;;5060074;28;19931;-72
2023/07/03 14:23:55;;;;;;;;;;;;;;;;;;5067087;28;19924;-71
2023/07/03 14:26:23;;;;;;;;;;;;;;;;;;5073589;28;19986;-71
2023/07/03 14:28:50;;;;;;;;;;;;;;;;;;5058891;28;19977;-72
2023/07/03 14:31:17;;;;;;;;;;;;;;;;;;5070775;28;19925;-71
2023/07/03 14:33:44;;;;;;;;;;;;;;;;;;5065592;28;19960;-71
2023/07/03 14:36:11;;;;;;;;;;;;;;;;;;5063533;28;20495;-71
2023/07/03 14:38:38;;;;;;;;;;;;;;;;;;5066797;28;19925;-72
2023/07/03 14:41:05;;;;;;;;;;;;;;;;;;5058366;28;19932;-72
2023/07/03 14:43:32;;;;;;;;;;;;;;;;;;5068047;28;19924;-71
2023/07/03 14:46:00;;;;;;;;;;;;;;;;;;5060205;28;19925;-70
2023/07/03 14:48:27;;;;;;;;;;;;;;;;;;5064550;28;20311;-71
2023/07/03 14:50:54;;;;;;;;;;;;;;;;;;5066511;28;19924;-72
2023/07/03 14:53:21;;;;;;;;;;;;;;;;;;5067646;28;19928;-72
2023/07/03 14:55:48;;;;;;;;;;;;;;;;;;5084142;28;19967;-72
2023/07/03 14:58:15;;;;;;;;;;;;;;;;;;5077050;28;20019;-71
2023/07/03 15:00:42;;;;;;;;;;;;;;;;;;5062469;28;19943;-71
2023/07/03 15:03:09;;;;;;;;;;;;;;;;;;5067257;28;20580;-71
2023/07/03 15:05:36;;;;;;;;;;;;;;;;;;5070976;28;19924;-71
2023/07/03 15:08:03;;;;;;;;;;;;;;;;;;5064451;28;19925;-72
2023/07/03 15:10:30;;;;;;;;;;;;;;;;;;5071848;28;20447;-71
2023/07/03 15:12:57;;;;;;;;;;;;;;;;;;5083293;28;19928;-72
2023/07/03 15:15:24;;;;;;;;;;;;;;;;;;5078504;28;20091;-71
2023/07/03 15:17:51;;;;;;;;;;;;;;;;;;5072344;28;20380;-71
2023/07/03 15:20:18;;;;;;;;;;;;;;;;;;5081864;28;19931;-72
2023/07/03 15:22:45;;;;;;;;;;;;;;;;;;5076619;28;20367;-72
2023/07/03 15:25:12;;;;;;;;;;;;;;;;;;5072237;28;20015;-71
2023/07/03 15:27:39;;;;;;;;;;;;;;;;;;5070434;28;20452;-72
2023/07/03 15:30:06;;;;;;;;;;;;;;;;;;5063340;28;19932;-71
2023/07/03 15:32:33;;;;;;;;;;;;;;;;;;5063423;28;20391;-71
2023/07/03 15:35:00;;;;;;;;;;;;;;;;;;5073123;28;20035;-72
2023/07/03 15:37:27;;;;;;;;;;;;;;;;;;5069644;28;20073;-71
2023/07/03 15:39:54;;;;;;;;;;;;;;;;;;5092818;28;20015;-71
2023/07/03 15:42:21;;;;;;;;;;;;;;;;;;5063785;28;19996;-71
2023/07/03 15:44:48;;;;;;;;;;;;;;;;;;5065286;28;20010;-71
2023/07/03 15:47:15;;;;;;;;;;;;;;;;;;5065027;28;19975;-72
2023/07/03 15:49:42;;;;;;;;;;;;;;;;;;5072074;28;19978;-72
2023/07/03 15:52:09;;;;;;;;;;;;;;;;;;5063296;28;19925;-72
2023/07/03 15:54:36;;;;;;;;;;;;;;;;;;5076402;28;19971;-72
2023/07/03 15:57:03;;;;;;;;;;;;;;;;;;5071242;28;19924;-72
2023/07/03 15:59:30;;;;;;;;;;;;;;;;;;5069217;28;20019;-72
2023/07/03 16:01:57;;;;;;;;;;;;;;;;;;5067838;28;19932;-71
2023/07/03 16:04:24;;;;;;;;;;;;;;;;;;5066729;28;20331;-73
2023/07/03 16:06:51;;;;;;;;;;;;;;;;;;5061387;28;20370;-72
2023/07/03 16:09:18;;;;;;;;;;;;;;;;;;5058924;28;19975;-71
2023/07/03 16:11:47;;;;;;;;;;;;;;;;;;5067446;28;20018;-71
2023/07/03 16:14:14;;;;;;;;;;;;;;;;;;5068434;28;19975;-72
2023/07/03 16:16:41;;;;;;;;;;;;;;;;;;5066346;28;19929;-72
2023/07/03 16:19:08;;;;;;;;;;;;;;;;;;5065246;28;19924;-72
2023/07/03 16:21:36;;;;;;;;;;;;;;;;;;5069082;28;19968;-70
2023/07/03 16:24:03;;;;;;;;;;;;;;;;;;5070411;28;20328;-71
2023/07/03 16:26:30;;;;;;;;;;;;;;;;;;5071832;28;20272;-71
2023/07/03 16:28:57;;;;;;;;;;;;;;;;;;5073303;28;19977;-71
2023/07/03 16:31:24;;;;;;;;;;;;;;;;;;5068119;28;20383;-70
2023/07/03 16:33:51;;;;;;;;;;;;;;;;;;5061814;28;19964;-70
2023/07/03 16:36:18;;;;;;;;;;;;;;;;;;5066845;28;19924;-69
2023/07/03 16:38:45;;;;;;;;;;;;;;;;;;5059152;28;20044;-70
2023/07/03 16:41:12;;;;;;;;;;;;;;;;;;5059455;28;20015;-70
2023/07/03 16:43:39;;;;;;;;;;;;;;;;;;5064630;22;20345;-70